Time;durP1;ratioP1;P1;durP2;ratioP2;P2;SDS_P1;SDS_P2;PMS_P1;PMS_P2;Temp;Humidity;BMP_temperature;BMP_pressure;BME280_temperature;BME280_humidity;BME280_pressure;Samples;Min_cycle;Max_cycle;Signal;HPM_P1;HPM_P2
2023/01/24 00:02:24;;;;;;;14.40;6.57;;;;;;;10.72;45.67;103457.72;5016945;28;20033;-66
2023/01/24 00:04:49;;;;;;;14.30;7.00;;;;;;;10.72;45.60;103459.53;5015593;28;20414;-66
2023/01/24 00:07:15;;;;;;;13.90;6.15;;;;;;;10.70;45.79;103458.72;5016372;28;20521;-66
2023/01/24 00:09:40;;;;;;;12.75;5.88;;;;;;;10.70;45.98;103456.91;5015825;28;20056;-66
2023/01/24 00:12:06;;;;;;;11.90;6.45;;;;;;;10.70;45.77;103456.91;5017220;28;20402;-66
2023/01/24 00:14:31;;;;;;;12.90;6.45;;;;;;;10.72;45.91;103456.88;5017721;28;20533;-67
2023/01/24 00:16:57;;;;;;;12.85;6.80;;;;;;;10.74;45.84;103449.63;5017938;28;20034;-66
2023/01/24 00:19:22;;;;;;;12.93;6.43;;;;;;;10.77;45.80;103453.03;4982734;28;20061;-66
2023/01/24 00:21:47;;;;;;;12.25;6.50;;;;;;;10.71;45.53;103445.25;4998799;28;20037;-66
2023/01/24 00:24:13;;;;;;;15.10;6.05;;;;;;;10.76;45.65;103458.47;5015611;28;20080;-66
2023/01/24 00:26:38;;;;;;;14.57;6.70;;;;;;;10.75;45.76;103465.63;5015220;28;20042;-66
2023/01/24 00:29:04;;;;;;;14.93;6.70;;;;;;;10.74;45.58;103458.53;5016691;28;20406;-67
2023/01/24 00:31:29;;;;;;;11.20;5.85;;;;;;;10.76;46.00;103458.47;5014021;28;20514;-67
2023/01/24 00:33:55;;;;;;;12.68;6.55;;;;;;;10.76;45.98;103462.00;5016594;28;20038;-67
2023/01/24 00:36:20;;;;;;;17.23;7.40;;;;;;;10.77;45.61;103453.03;4998706;28;20032;-66
2023/01/24 00:38:46;;;;;;;16.40;6.68;;;;;;;10.78;45.78;103451.22;5016772;28;20034;-67
2023/01/24 00:41:11;;;;;;;14.40;6.78;;;;;;;10.81;45.13;103454.63;5015230;28;20112;-66
2023/01/24 00:43:36;;;;;;;12.20;6.45;;;;;;;10.79;45.44;103451.16;5014744;28;20406;-66
2023/01/24 00:46:05;;;;;;;10.27;5.32;;;;;;;10.75;45.83;103437.97;4998719;28;20068;-66
2023/01/24 00:48:31;;;;;;;14.93;6.13;;;;;;;10.76;46.13;103445.06;5015396;28;20028;-66
2023/01/24 00:50:56;;;;;;;13.90;6.22;;;;;;;10.74;45.30;103442.44;4999156;28;20108;-65
2023/01/24 00:53:22;;;;;;;16.90;7.32;;;;;;;10.74;45.91;103447.81;5015971;28;20029;-65
2023/01/24 00:55:48;;;;;;;13.35;6.43;;;;;;;10.75;45.42;103444.16;5014589;28;20037;-66
2023/01/24 00:58:14;;;;;;;12.68;6.40;;;;;;;10.72;45.71;103428.22;5015780;28;20034;-65
2023/01/24 01:00:39;;;;;;;10.77;5.47;;;;;;;10.76;45.60;103442.38;5014270;28;20030;-66
2023/01/24 01:03:06;;;;;;;13.23;5.88;;;;;;;10.77;46.22;103442.31;5015780;28;20026;-66
2023/01/24 01:05:32;;;;;;;9.85;5.30;;;;;;;10.78;45.76;103438.69;5014185;28;20034;-66
2023/01/24 01:07:58;;;;;;;13.30;6.38;;;;;;;10.80;45.74;103436.84;5015537;28;20045;-66
2023/01/24 01:10:23;;;;;;;9.95;4.97;;;;;;;10.81;46.06;103438.56;5013827;28;20557;-66
2023/01/24 01:12:48;;;;;;;14.05;5.85;;;;;;;10.81;45.63;103443.03;5013800;28;20030;-65
2023/01/24 01:15:14;;;;;;;10.70;6.00;;;;;;;10.79;45.76;103445.81;5015692;28;20044;-67
2023/01/24 01:17:39;;;;;;;13.75;6.45;;;;;;;10.78;45.16;103441.38;5015012;28;20121;-66
2023/01/24 01:20:05;;;;;;;11.15;6.07;;;;;;;10.76;45.65;103440.56;5013759;28;20050;-65
2023/01/24 01:22:30;;;;;;;11.98;6.57;;;;;;;10.75;45.69;103438.81;5014855;28;20038;-66
2023/01/24 01:24:56;;;;;;;10.88;5.32;;;;;;;10.75;45.95;103443.34;5013694;28;20042;-65
2023/01/24 01:27:22;;;;;;;13.43;5.95;;;;;;;10.74;45.56;103447.81;5015580;28;20026;-66
2023/01/24 01:29:48;;;;;;;13.90;5.88;;;;;;;10.75;45.61;103443.34;5013693;28;20030;-66
2023/01/24 01:32:13;;;;;;;12.02;6.47;;;;;;;10.73;46.05;103456.78;5014888;28;20049;-66
2023/01/24 01:34:38;;;;;;;13.75;6.03;;;;;;;10.73;45.73;103451.41;5013593;28;20112;-66
2023/01/24 01:37:04;;;;;;;12.60;6.20;;;;;;;10.74;45.67;103455.84;5014929;28;20417;-66
2023/01/24 01:39:29;;;;;;;10.73;6.28;;;;;;;10.74;45.91;103454.97;5014587;28;20042;-66
2023/01/24 01:41:54;;;;;;;10.63;6.07;;;;;;;10.75;45.93;103454.06;5015007;28;20467;-67
2023/01/24 01:44:41;;;;;;;17.77;6.10;;;;;;;10.73;45.91;103454.09;5013526;28;20062;-66
2023/01/24 01:47:15;;;;;;;19.65;7.30;;;;;;;10.75;45.98;103448.69;5014636;28;20030;-66
2023/01/24 01:49:45;;;;;;;13.63;6.13;;;;;;;10.75;45.38;103446.84;5013184;28;20432;-66
2023/01/24 01:52:10;;;;;;;17.20;7.18;;;;;;;10.76;45.98;103439.69;5013758;28;20130;-66
2023/01/24 01:54:39;;;;;;;12.57;6.88;;;;;;;10.74;46.12;103430.84;4997470;28;20057;-66
2023/01/24 01:57:11;;;;;;;12.90;6.72;;;;;;;10.79;45.67;103450.28;4997274;28;20394;-66
2023/01/24 01:59:45;;;;;;;12.73;6.63;;;;;;;10.79;45.70;103443.13;5012990;28;20062;-66
2023/01/24 02:02:11;;;;;;;12.98;6.40;;;;;;;10.77;46.25;103436.97;5013331;28;20040;-66
2023/01/24 02:04:39;;;;;;;13.77;7.50;;;;;;;10.77;45.84;103442.31;5013655;28;20037;-66
2023/01/24 02:07:10;;;;;;;11.82;7.13;;;;;;;10.77;45.99;103442.31;5013381;28;20057;-67
2023/01/24 02:09:41;;;;;;;18.17;7.35;;;;;;;10.76;45.66;103445.94;5014559;28;20029;-66
2023/01/24 02:12:19;;;;;;;12.68;6.13;;;;;;;10.76;45.97;103451.28;5014774;28;20497;-67
2023/01/24 02:17:31;;;;;;;15.07;6.80;;;;;;;10.74;45.77;103446.94;5013553;28;20111;-66
2023/01/24 02:20:21;;;;;;;14.90;6.88;;;;;;;10.70;45.80;103448.88;5015298;28;20042;-66
2023/01/24 02:22:59;;;;;;;12.32;6.40;;;;;;;10.64;45.50;103453.59;4995878;28;20030;-66
2023/01/24 02:25:46;;;;;;;12.77;6.93;;;;;;;10.61;45.51;103454.59;5014391;28;20030;-66
2023/01/24 02:28:12;;;;;;;13.38;6.70;;;;;;;10.58;45.73;103457.41;5012854;28;20053;-66
2023/01/24 02:30:38;;;;;;;16.23;7.68;;;;;;;10.58;45.83;103445.84;5012766;28;20034;-66
2023/01/24 02:33:15;;;;;;;16.38;6.78;;;;;;;10.60;46.24;103444.84;4997166;28;20042;-66
2023/01/24 02:35:41;;;;;;;17.08;6.57;;;;;;;10.62;45.86;103452.81;5012747;28;20038;-66
2023/01/24 02:38:13;;;;;;;15.35;6.93;;;;;;;10.63;46.19;103454.56;5012882;28;20033;-66
2023/01/24 02:40:39;;;;;;;15.90;7.00;;;;;;;10.63;45.74;103450.09;5013313;28;20061;-67
2023/01/24 02:43:06;;;;;;;12.63;6.32;;;;;;;10.62;46.13;103447.44;4996307;28;20513;-66
2023/01/24 02:45:33;;;;;;;11.68;6.70;;;;;;;10.61;45.81;103446.56;5012690;28;20394;-66
2023/01/24 02:47:58;;;;;;;13.15;6.10;;;;;;;10.60;45.95;103444.84;5013324;28;20026;-66
2023/01/24 02:50:26;;;;;;;13.45;7.05;;;;;;;10.57;45.75;103450.34;5014109;28;20041;-66
2023/01/24 02:58:21;;;;;;;11.82;6.05;;;;;;;10.52;45.92;103447.81;5013918;28;20096;-66
2023/01/24 03:00:46;;;;;;;17.70;6.78;;;;;;;10.44;45.53;103427.69;5012383;28;20029;-66
2023/01/24 03:03:12;;;;;;;10.23;5.78;;;;;;;10.49;45.89;103449.78;4996346;28;20122;-66
2023/01/24 03:05:56;;;;;;;10.60;5.85;;;;;;;10.46;45.82;103441.88;5012683;28;20128;-66
2023/01/24 03:08:23;;;;;;;14.52;7.15;;;;;;;10.44;45.79;103433.88;4998922;28;20042;-66
2023/01/24 03:10:48;;;;;;;15.85;6.82;;;;;;;10.43;45.89;103431.28;5012439;28;20029;-66
2023/01/24 03:35:08;;;;;;;10.30;5.22;;;;;;;10.42;46.21;103424.16;5015930;28;20041;-66
2023/01/24 03:40:18;;;;;;;8.60;4.93;;;;;;;10.39;46.07;103435.00;5012568;28;20112;-66
2023/01/24 03:42:50;;;;;;;9.77;5.47;;;;;;;10.38;45.75;103427.94;5025501;28;20046;-66
2023/01/24 03:45:21;;;;;;;9.10;5.10;;;;;;;10.39;46.18;103429.66;5016835;28;20209;-66
2023/01/24 03:48:04;;;;;;;7.85;4.30;;;;;;;10.41;45.59;103427.81;5016089;28;20105;-66
2023/01/24 03:53:20;;;;;;;10.70;4.93;;;;;;;10.40;45.86;103429.59;5017693;28;20608;-65
2023/01/24 03:55:45;;;;;;;10.60;4.88;;;;;;;10.40;46.20;103431.41;4999902;28;20061;-65
2023/01/24 03:58:11;;;;;;;10.10;4.68;;;;;;;10.39;45.88;103433.22;5017257;28;20061;-65
2023/01/24 04:00:37;;;;;;;9.00;4.80;;;;;;;10.38;46.08;103431.50;5015880;28;20026;-65
2023/01/24 04:03:03;;;;;;;10.13;5.05;;;;;;;10.36;46.01;103433.34;5015912;28;20088;-66
2023/01/24 04:05:28;;;;;;;8.88;5.00;;;;;;;10.37;45.79;103431.53;5015353;28;20037;-65
2023/01/24 04:07:55;;;;;;;9.95;4.82;;;;;;;10.38;45.81;103433.28;5015594;28;20498;-66
2023/01/24 04:10:20;;;;;;;8.98;4.85;;;;;;;10.39;45.73;103424.28;5015589;28;20030;-66
2023/01/24 04:12:46;;;;;;;9.80;4.43;;;;;;;10.38;46.06;103427.94;5015970;28;20500;-65
2023/01/24 04:15:23;;;;;;;11.32;5.07;;;;;;;10.40;45.73;103426.06;5017127;28;20033;-66
2023/01/24 04:17:48;;;;;;;9.23;4.78;;;;;;;10.41;45.94;103425.13;5016772;28;20037;-65
2023/01/24 04:20:15;;;;;;;10.95;5.05;;;;;;;10.38;45.71;103427.94;5016855;28;20034;-65
2023/01/24 04:22:40;;;;;;;13.20;5.22;;;;;;;10.34;45.81;103415.59;5015001;28;20045;-65
2023/01/24 04:25:06;;;;;;;10.07;5.07;;;;;;;10.37;45.89;103416.34;5015499;28;20034;-66
2023/01/24 04:27:31;;;;;;;15.38;5.22;;;;;;;10.38;45.98;103422.56;5015163;28;20104;-66
2023/01/24 04:29:57;;;;;;;10.82;4.85;;;;;;;10.38;45.89;103417.22;5016850;28;20108;-66
2023/01/24 04:32:22;;;;;;;9.77;4.70;;;;;;;10.38;45.97;103422.56;5015190;28;20523;-65
2023/01/24 04:34:47;;;;;;;9.50;4.85;;;;;;;10.38;45.55;103423.44;5015161;28;20405;-65
2023/01/24 04:37:13;;;;;;;9.90;4.88;;;;;;;10.39;45.89;103414.47;5015034;28;20141;-65
2023/01/24 04:39:38;;;;;;;9.98;5.35;;;;;;;10.39;46.01;103416.25;4998530;28;20033;-66
2023/01/24 04:42:05;;;;;;;12.05;5.85;;;;;;;10.42;45.73;103414.34;5014892;28;20018;-66
2023/01/24 04:44:31;;;;;;;11.68;6.00;;;;;;;10.40;45.92;103408.19;5018973;28;20036;-66
2023/01/24 04:46:56;;;;;;;15.90;5.32;;;;;;;10.31;45.92;103405.88;4999708;28;20061;-65
2023/01/24 04:49:22;;;;;;;11.10;5.50;;;;;;;10.36;45.88;103416.38;5014876;28;20037;-66
2023/01/24 04:51:49;;;;;;;12.63;6.25;;;;;;;10.37;45.97;103415.47;4998708;28;20423;-65
2023/01/24 04:54:15;;;;;;;11.75;4.93;;;;;;;10.30;45.81;103414.84;5015270;28;20033;-65
2023/01/24 04:56:40;;;;;;;10.65;4.38;;;;;;;10.27;45.89;103416.78;5015877;28;20534;-65
2023/01/24 04:59:05;;;;;;;7.70;4.35;;;;;;;10.23;45.66;103415.16;4998211;28;20034;-66
2023/01/24 05:01:31;;;;;;;8.70;4.43;;;;;;;10.21;45.85;103425.94;5015787;28;20034;-65
2023/01/24 05:03:58;;;;;;;9.02;4.45;;;;;;;10.19;45.52;103427.81;5015570;28;20030;-65
2023/01/24 05:06:29;;;;;;;8.23;4.68;;;;;;;10.18;45.88;103426.06;5014459;28;20053;-65
2023/01/24 05:08:55;;;;;;;8.80;4.80;;;;;;;10.19;46.29;103426.94;5015354;28;20152;-66
2023/01/24 05:11:21;;;;;;;8.90;4.82;;;;;;;10.19;45.82;103426.94;4997793;28;20427;-65
2023/01/24 05:13:46;;;;;;;10.55;5.40;;;;;;;10.18;45.87;103426.06;4998166;28;20080;-65
2023/01/24 05:16:12;;;;;;;9.20;4.70;;;;;;;10.20;45.91;103428.69;5014336;28;20104;-66
2023/01/24 05:18:38;;;;;;;7.90;4.57;;;;;;;10.19;46.03;103432.31;5014219;28;20490;-66
2023/01/24 05:21:22;;;;;;;7.07;4.22;;;;;;;10.17;45.68;103429.69;5014817;28;20053;-65
2023/01/24 05:23:51;;;;;;;9.63;4.80;;;;;;;10.18;46.19;103427.88;5015345;28;20033;-66
2023/01/24 05:26:18;;;;;;;9.95;5.35;;;;;;;10.23;45.60;103433.91;5013853;28;20069;-65
2023/01/24 05:28:44;;;;;;;7.82;4.10;;;;;;;10.21;45.60;103431.31;4997871;28;20046;-66
2023/01/24 05:31:09;;;;;;;8.70;4.53;;;;;;;10.20;45.90;103432.22;5014085;28;20117;-65
2023/01/24 05:33:38;;;;;;;10.38;4.95;;;;;;;10.21;45.54;103433.09;4998471;28;20529;-65
2023/01/24 05:36:06;;;;;;;11.20;4.57;;;;;;;10.16;45.74;103438.63;4998515;28;20057;-64
2023/01/24 05:38:32;;;;;;;10.13;4.88;;;;;;;10.15;45.74;103446.75;5013647;28;20506;-65
2023/01/24 05:41:08;;;;;;;9.68;4.68;;;;;;;10.16;45.74;103443.16;5014227;28;20041;-65
2023/01/24 05:43:34;;;;;;;10.10;4.68;;;;;;;10.16;45.87;103441.31;5013713;28;20066;-65
2023/01/24 05:46:09;;;;;;;12.07;5.45;;;;;;;10.19;45.69;103441.19;5014769;28;20038;-65
2023/01/24 05:48:34;;;;;;;12.25;5.47;;;;;;;10.18;45.46;103435.91;5013822;28;20038;-66
2023/01/24 05:51:01;;;;;;;10.60;5.85;;;;;;;10.23;45.62;103442.81;5014455;28;20034;-65
2023/01/24 05:53:28;;;;;;;10.40;5.05;;;;;;;10.27;45.88;103446.25;4997724;28;20038;-65
2023/01/24 05:56:01;;;;;;;7.32;4.47;;;;;;;10.26;45.34;103439.16;4980876;28;20046;-65
2023/01/24 05:58:28;;;;;;;12.30;5.68;;;;;;;10.30;45.62;103449.66;5013820;28;20061;-65
2023/01/24 06:00:54;;;;;;;9.80;5.95;;;;;;;10.28;45.30;103447.97;5013672;28;20042;-65
2023/01/24 06:03:20;;;;;;;10.27;5.43;;;;;;;10.23;46.07;103444.63;5013995;28;20566;-65
2023/01/24 06:05:46;;;;;;;10.27;4.90;;;;;;;10.29;45.70;103460.44;5014402;28;20453;-65
2023/01/24 06:08:12;;;;;;;10.07;4.65;;;;;;;10.28;46.33;103464.94;4997008;28;20034;-65
2023/01/24 06:10:37;;;;;;;9.07;4.63;;;;;;;10.31;45.22;103464.81;5013373;28;20095;-65
2023/01/24 06:13:03;;;;;;;11.57;5.22;;;;;;;10.30;46.00;103451.50;5013551;28;20128;-65
2023/01/24 06:15:28;;;;;;;11.73;4.75;;;;;;;10.32;45.33;103457.66;5014381;28;20029;-65
2023/01/24 06:17:53;;;;;;;10.35;4.90;;;;;;;10.33;46.11;103462.94;5013822;28;20474;-65
2023/01/24 06:20:20;;;;;;;11.25;4.22;;;;;;;10.36;45.45;103472.66;5014084;28;20041;-65
2023/01/24 06:22:52;;;;;;;7.30;3.78;;;;;;;10.32;46.07;103471.03;5013169;28;20050;-65
2023/01/24 06:25:23;;;;;;;9.93;4.78;;;;;;;10.28;45.52;103474.75;4996569;28;20034;-66
2023/01/24 06:27:49;;;;;;;10.13;4.30;;;;;;;10.27;45.67;103465.84;4996614;28;20030;-65
2023/01/24 06:30:16;;;;;;;7.25;3.83;;;;;;;10.27;45.75;103465.00;5013619;28;20048;-65
2023/01/24 06:33:18;;;;;;;7.57;3.90;;;;;;;10.26;45.52;103466.81;4996566;28;20045;-65
2023/01/24 06:36:14;;;;;;;8.05;4.10;;;;;;;10.23;45.42;103476.75;5014269;28;20048;-66
2023/01/24 06:38:40;;;;;;;8.73;4.30;;;;;;;10.22;45.99;103475.88;5013056;28;20088;-65
2023/01/24 06:41:14;;;;;;;7.93;4.25;;;;;;;10.26;45.69;103484.69;4987295;28;20038;-65
2023/01/24 06:43:39;;;;;;;10.63;5.18;;;;;;;10.28;45.71;103486.38;5011416;28;20104;-65
2023/01/24 06:46:08;;;;;;;10.75;4.57;;;;;;;10.32;45.43;103492.47;5013666;28;20490;-66
2023/01/24 06:48:33;;;;;;;7.53;3.83;;;;;;;10.33;45.47;103481.69;5016501;28;20060;-66
2023/01/24 06:50:59;;;;;;;9.82;4.43;;;;;;;10.34;45.58;103490.59;5016352;28;20441;-65
2023/01/24 06:53:25;;;;;;;10.15;4.63;;;;;;;10.34;45.41;103480.75;5013310;28;20116;-66
2023/01/24 06:55:50;;;;;;;7.93;3.75;;;;;;;10.34;45.21;103494.16;5011943;28;20041;-66
2023/01/24 06:58:16;;;;;;;6.80;3.65;;;;;;;10.35;45.64;103487.00;5013452;28;20077;-66
2023/01/24 07:00:41;;;;;;;8.35;4.07;;;;;;;10.36;45.41;103491.41;5013158;28;20505;-65
2023/01/24 07:03:07;;;;;;;8.20;4.20;;;;;;;10.37;45.72;103495.84;4996273;28;20029;-65
2023/01/24 07:05:34;;;;;;;6.95;3.97;;;;;;;10.36;45.53;103499.44;5013168;28;20120;-65
2023/01/24 07:08:00;;;;;;;7.15;4.05;;;;;;;10.37;45.67;103498.50;4995552;28;20050;-65
2023/01/24 07:10:26;;;;;;;9.02;3.80;;;;;;;10.37;45.34;103495.84;5014809;28;20041;-65
2023/01/24 07:12:51;;;;;;;7.95;3.83;;;;;;;10.39;45.34;103499.31;5015895;28;20042;-65
2023/01/24 07:15:17;;;;;;;6.30;4.00;;;;;;;10.39;45.50;103504.66;5017622;28;20076;-65
2023/01/24 07:17:43;;;;;;;10.60;4.30;;;;;;;10.38;45.86;103503.81;5017073;28;20142;-65
2023/01/24 07:20:09;;;;;;;8.07;4.07;;;;;;;10.35;44.80;103508.44;5015742;28;20060;-65
2023/01/24 07:22:37;;;;;;;6.15;3.53;;;;;;;10.36;45.17;103510.16;5016941;28;20041;-65
2023/01/24 07:25:03;;;;;;;9.48;4.15;;;;;;;10.34;44.97;103512.91;5017051;28;20045;-65
2023/01/24 07:27:28;;;;;;;10.35;3.88;;;;;;;10.36;45.25;103526.22;5015640;28;20025;-65
2023/01/24 07:29:54;;;;;;;8.75;3.95;;;;;;;10.36;45.27;103523.53;5017269;28;20030;-65
2023/01/24 07:32:19;;;;;;;10.02;4.40;;;;;;;10.34;45.45;103528.97;4999385;28;20038;-65
2023/01/24 07:34:44;;;;;;;13.23;5.18;;;;;;;10.33;45.24;103526.38;5016775;28;20092;-64
2023/01/24 07:37:10;;;;;;;9.80;4.13;;;;;;;10.35;45.21;103535.22;5016749;28;20449;-65
2023/01/24 07:39:36;;;;;;;10.52;4.55;;;;;;;10.34;45.38;103539.69;5015578;28;20037;-65
2023/01/24 07:42:01;;;;;;;9.63;4.45;;;;;;;10.32;45.41;103535.34;5017104;28;20034;-66
2023/01/24 07:44:26;;;;;;;6.25;3.40;;;;;;;10.30;45.63;103543.41;5016444;28;20516;-65
2023/01/24 07:46:52;;;;;;;12.48;4.50;;;;;;;10.27;45.67;103540.00;5015439;28;20038;-65
2023/01/24 07:49:17;;;;;;;6.45;4.25;;;;;;;10.30;45.13;103547.94;5015160;28;20087;-64
2023/01/24 07:51:44;;;;;;;6.00;3.75;;;;;;;10.32;45.59;103557.66;5014520;28;20026;-66
2023/01/24 07:54:10;;;;;;;8.45;4.60;;;;;;;10.31;45.70;103552.34;5001677;28;20041;-65
2023/01/24 07:56:35;;;;;;;9.35;4.35;;;;;;;10.31;44.80;103560.38;4996351;28;20030;-65
2023/01/24 07:59:01;;;;;;;7.13;3.60;;;;;;;10.32;44.90;103567.50;4979077;28;20035;-66
2023/01/24 08:01:26;;;;;;;8.98;4.25;;;;;;;10.28;45.65;103560.50;4995511;28;20494;-65
2023/01/24 08:03:56;;;;;;;6.53;3.78;;;;;;;10.30;45.44;103561.31;4996672;28;20042;-65
2023/01/24 08:06:22;;;;;;;7.30;4.13;;;;;;;10.31;45.42;103568.41;4995521;28;20054;-66
2023/01/24 08:08:47;;;;;;;7.85;3.60;;;;;;;10.31;45.34;103568.41;5011025;28;20397;-66
2023/01/24 08:11:15;;;;;;;7.78;4.57;;;;;;;10.31;45.19;103568.41;5013854;28;20516;-66
2023/01/24 08:13:41;;;;;;;5.57;3.40;;;;;;;10.30;45.09;103561.31;5014276;28;20041;-66
2023/01/24 08:16:07;;;;;;;9.73;4.80;;;;;;;10.28;45.16;103572.09;4993672;28;20514;-66
2023/01/24 08:18:32;;;;;;;8.50;3.97;;;;;;;10.33;45.52;103569.25;4995051;28;20045;-65
2023/01/24 08:20:58;;;;;;;10.55;4.93;;;;;;;10.35;45.11;103578.09;5013459;28;20038;-66
2023/01/24 08:23:23;;;;;;;7.35;4.10;;;;;;;10.37;45.03;103577.09;4994013;28;20133;-66
2023/01/24 08:25:48;;;;;;;6.70;3.33;;;;;;;10.36;45.31;103574.44;4995685;28;20042;-66
2023/01/24 08:28:14;;;;;;;8.07;4.13;;;;;;;10.37;45.05;103570.84;5011072;28;20192;-65
2023/01/24 08:30:39;;;;;;;7.50;4.00;;;;;;;10.41;44.30;103580.53;4994924;28;20117;-65
2023/01/24 08:33:11;;;;;;;10.77;4.35;;;;;;;10.37;44.47;103565.50;4996581;28;20474;-66
2023/01/24 08:35:37;;;;;;;7.93;4.10;;;;;;;10.42;44.91;103579.56;4994888;28;20030;-66
2023/01/24 08:38:02;;;;;;;9.13;4.13;;;;;;;10.43;44.71;103582.22;4996151;28;20491;-66
2023/01/24 08:40:28;;;;;;;9.98;4.10;;;;;;;10.44;44.76;103578.56;4994618;28;20046;-67
2023/01/24 08:42:53;;;;;;;7.60;3.80;;;;;;;10.46;45.26;103586.56;4995959;28;20042;-67
2023/01/24 08:45:19;;;;;;;7.55;3.90;;;;;;;10.47;45.17;103589.19;4995055;28;20038;-67
2023/01/24 08:47:44;;;;;;;7.95;4.05;;;;;;;10.49;44.96;103586.44;4994609;28;20039;-66
2023/01/24 08:50:10;;;;;;;11.32;4.18;;;;;;;10.50;45.23;103591.75;4974997;28;20066;-67
2023/01/24 08:52:35;;;;;;;6.68;4.05;;;;;;;10.50;45.18;103589.06;4985767;28;20128;-67
2023/01/24 08:55:01;;;;;;;7.93;4.10;;;;;;;10.46;44.52;103587.44;4994343;28;20034;-67
2023/01/24 08:57:26;;;;;;;8.45;4.13;;;;;;;10.52;44.88;103597.06;4977221;28;20482;-67
2023/01/24 08:59:51;;;;;;;10.55;4.88;;;;;;;10.54;45.14;103600.53;4996035;28;20038;-66
2023/01/24 09:02:17;;;;;;;8.23;3.85;;;;;;;10.52;45.25;103597.06;4995554;28;20100;-67
2023/01/24 09:04:43;;;;;;;7.65;4.68;;;;;;;10.46;44.45;103581.22;4994324;28;20034;-66
2023/01/24 09:07:11;;;;;;;6.72;3.97;;;;;;;10.45;44.75;103595.53;4994139;28;20419;-67
2023/01/24 09:09:37;;;;;;;7.85;4.43;;;;;;;10.46;44.57;103608.00;4993931;28;20029;-67
2023/01/24 09:12:02;;;;;;;8.75;3.97;;;;;;;10.47;44.34;103599.00;4996216;28;20390;-67
2023/01/24 09:14:28;;;;;;;6.53;3.58;;;;;;;10.49;45.06;103605.22;4995305;28;20038;-66
2023/01/24 09:16:54;;;;;;;10.25;4.70;;;;;;;10.48;45.06;103600.78;4974706;28;20043;-66
2023/01/24 09:19:20;;;;;;;9.48;4.40;;;;;;;10.50;44.86;103602.47;4982072;28;20057;-66
2023/01/24 09:21:50;;;;;;;9.70;4.55;;;;;;;10.45;44.64;103590.19;4994194;28;20406;-66
2023/01/24 09:24:16;;;;;;;8.35;4.05;;;;;;;10.50;44.94;103612.28;4994756;28;20038;-66
2023/01/24 09:26:43;;;;;;;10.82;5.07;;;;;;;10.53;44.98;103604.13;4995183;28;20499;-66
2023/01/24 09:29:08;;;;;;;7.75;4.18;;;;;;;10.55;44.99;103596.94;4990666;28;20484;-66
2023/01/24 09:31:34;;;;;;;8.27;4.35;;;;;;;10.56;44.95;103601.34;4983513;28;20042;-65
2023/01/24 09:33:59;;;;;;;8.05;4.57;;;;;;;10.56;44.86;103604.03;4994784;28;20038;-65
2023/01/24 09:36:25;;;;;;;10.55;5.68;;;;;;;10.59;45.01;103598.53;4993727;28;20065;-66
2023/01/24 09:38:50;;;;;;;9.73;4.93;;;;;;;10.60;45.03;103605.66;4994063;28;20030;-67
2023/01/24 09:41:16;;;;;;;8.80;5.18;;;;;;;10.63;44.58;103612.69;4994770;28;20042;-66
2023/01/24 09:43:58;;;;;;;8.73;4.53;;;;;;;10.56;44.93;103598.66;4994817;28;20030;-66
2023/01/24 09:46:35;;;;;;;10.73;4.70;;;;;;;10.62;44.70;103609.16;4977297;28;20578;-67
2023/01/24 09:49:15;;;;;;;9.73;4.30;;;;;;;10.62;45.10;103614.50;4993457;28;20069;-67
2023/01/24 09:51:44;;;;;;;11.60;4.32;;;;;;;10.60;44.88;103605.66;4993330;28;20022;-67
2023/01/24 09:54:16;;;;;;;8.32;4.68;;;;;;;10.51;45.25;103595.28;4993773;28;20154;-66
2023/01/24 09:56:43;;;;;;;11.17;5.27;;;;;;;10.56;44.77;103620.09;4973959;28;20043;-67
2023/01/24 09:59:34;;;;;;;9.10;4.32;;;;;;;10.56;44.85;103613.84;4989140;28;20026;-67
2023/01/24 10:02:01;;;;;;;12.85;5.43;;;;;;;10.50;44.65;103609.63;4994348;28;20034;-66
2023/01/24 10:04:35;;;;;;;10.43;4.93;;;;;;;10.55;45.08;103613.00;4994384;28;20034;-66
2023/01/24 10:07:29;;;;;;;6.15;4.00;;;;;;;10.63;44.92;103618.94;4992985;28;20038;-66
2023/01/24 10:10:04;;;;;;;8.05;4.35;;;;;;;10.62;44.38;103609.16;4993250;28;20564;-66
2023/01/24 10:12:50;;;;;;;7.80;4.47;;;;;;;10.72;44.77;103615.88;4976417;28;20029;-66
2023/01/24 10:15:26;;;;;;;11.30;4.97;;;;;;;10.77;44.46;103619.25;4993925;28;20021;-66
2023/01/24 10:17:57;;;;;;;10.32;5.22;;;;;;;10.68;44.84;103592.81;4989797;28;20035;-67
2023/01/24 10:20:31;;;;;;;10.18;4.50;;;;;;;10.80;44.40;103608.41;4990637;28;20033;-67
2023/01/24 10:22:56;;;;;;;10.77;5.25;;;;;;;10.89;44.28;103626.78;4992888;28;20062;-67
2023/01/24 10:25:31;;;;;;;7.43;4.50;;;;;;;10.85;44.53;103630.53;4994179;28;20541;-67
2023/01/24 10:28:01;;;;;;;7.07;3.78;;;;;;;10.81;44.36;103620.88;4992975;28;20518;-67
2023/01/24 10:30:31;;;;;;;9.25;4.70;;;;;;;10.77;45.03;103613.91;4992917;28;20022;-66
2023/01/24 10:33:00;;;;;;;8.73;4.63;;;;;;;10.79;44.14;103612.03;4994303;28;20033;-65
2023/01/24 10:35:29;;;;;;;7.18;3.60;;;;;;;10.81;44.36;103620.00;4992833;28;20046;-65
2023/01/24 10:37:58;;;;;;;9.20;3.72;;;;;;;10.84;44.97;103625.22;4992843;28;20042;-68
2023/01/24 10:40:24;;;;;;;10.25;4.60;;;;;;;10.87;44.27;103620.63;4992449;28;20125;-68
2023/01/24 10:42:50;;;;;;;8.90;4.30;;;;;;;10.86;44.71;103613.50;4992452;28;20033;-68
2023/01/24 10:45:34;;;;;;;11.68;4.97;;;;;;;10.87;44.37;103603.66;4992303;28;20030;-68
2023/01/24 10:48:06;;;;;;;8.00;5.03;;;;;;;10.89;44.51;103613.38;4994289;28;20042;-68
2023/01/24 10:50:41;;;;;;;11.40;5.43;;;;;;;10.91;44.67;103608.84;4993742;28;20027;-68
2023/01/24 10:53:27;;;;;;;7.47;4.63;;;;;;;10.84;44.64;103610.03;4992406;28;20030;-68
2023/01/24 10:56:01;;;;;;;9.02;5.00;;;;;;;10.83;44.89;103610.94;4992078;28;20038;-68
2023/01/24 10:58:33;;;;;;;8.35;4.03;;;;;;;10.78;44.57;103606.69;4981282;28;20030;-68
2023/01/24 11:01:04;;;;;;;11.85;5.47;;;;;;;10.84;44.52;103614.50;4992384;28;20530;-68
2023/01/24 11:03:34;;;;;;;9.27;5.15;;;;;;;10.89;44.64;103610.69;4977697;28;20026;-68
2023/01/24 11:06:00;;;;;;;7.50;4.38;;;;;;;10.97;44.37;103611.25;4994996;28;20033;-68
2023/01/24 11:08:34;;;;;;;8.18;4.53;;;;;;;11.03;44.77;103605.63;4992328;28;20042;-68
2023/01/24 11:11:00;;;;;;;10.07;5.00;;;;;;;11.07;44.60;103607.28;4992292;28;20062;-69
2023/01/24 11:13:39;;;;;;;8.80;4.88;;;;;;;11.04;43.90;103601.16;4976250;28;20104;-68
2023/01/24 11:16:17;;;;;;;7.80;4.30;;;;;;;11.00;44.07;103600.41;4993515;28;20042;-68
2023/01/24 11:19:03;;;;;;;9.93;4.97;;;;;;;11.00;44.56;103599.53;4993633;28;20029;-69
2023/01/24 11:21:29;;;;;;;9.90;4.85;;;;;;;11.00;44.69;103602.22;4992126;28;20428;-68
2023/01/24 11:24:14;;;;;;;9.15;5.18;;;;;;;11.00;44.25;103603.09;4992537;28;20514;-67
2023/01/24 11:27:03;;;;;;;8.43;5.03;;;;;;;10.99;44.50;103600.47;4992686;28;20034;-67
2023/01/24 11:29:28;;;;;;;8.55;4.95;;;;;;;10.96;44.51;103597.94;4972721;28;20031;-65
2023/01/24 11:31:56;;;;;;;7.32;4.55;;;;;;;11.00;44.46;103588.78;4984927;28;20536;-68
2023/01/24 11:34:46;;;;;;;7.63;4.78;;;;;;;11.03;44.92;103596.72;4972894;28;20031;-68
2023/01/24 11:37:49;;;;;;;11.55;4.88;;;;;;;11.04;44.53;103591.31;4952953;28;20113;-68
2023/01/24 11:40:27;;;;;;;8.57;4.03;;;;;;;11.01;44.60;103586.06;4980666;28;20129;-68
2023/01/24 11:43:07;;;;;;;10.63;4.82;;;;;;;10.99;44.41;103593.31;4993100;28;20038;-68
2023/01/24 11:45:58;;;;;;;6.15;4.32;;;;;;;10.92;44.42;103580.19;4992066;28;20041;-68
2023/01/24 11:49:11;;;;;;;7.93;4.90;;;;;;;10.90;44.24;103582.97;4990001;28;20042;-68
2023/01/24 11:51:39;;;;;;;8.48;5.03;;;;;;;10.89;44.06;103583.88;4975575;28;20030;-68
2023/01/24 11:54:35;;;;;;;9.52;4.43;;;;;;;10.91;44.69;103582.03;4988014;28;20387;-68
2023/01/24 11:57:18;;;;;;;10.35;5.35;;;;;;;10.91;44.53;103565.06;5015292;28;20131;-68
2023/01/24 11:59:59;;;;;;;9.70;4.45;;;;;;;10.91;44.69;103565.06;5015140;28;20532;-68
2023/01/24 12:02:46;;;;;;;8.48;4.63;;;;;;;10.92;44.84;103558.75;5016532;28;20509;-68
2023/01/24 12:05:42;;;;;;;9.18;4.65;;;;;;;10.91;44.27;103547.19;5015140;28;20506;-68
2023/01/24 12:08:20;;;;;;;12.07;5.60;;;;;;;11.03;44.63;103552.00;5014742;28;20046;-68